createdAt,value
2024-02-07T00:01:31.721Z,94761.19
2024-02-07T00:04:01.123Z,94764.69
2024-02-07T00:06:28.005Z,94760.19
2024-02-07T00:08:54.674Z,94755.94
2024-02-07T00:11:21.290Z,94742.00
2024-02-07T00:13:49.666Z,94743.81
2024-02-07T00:16:16.449Z,94736.75
2024-02-07T00:18:43.138Z,94729.28
2024-02-07T00:21:10.193Z,94727.69
2024-02-07T00:23:37.084Z,94716.16
2024-02-07T00:26:03.977Z,94715.19
2024-02-07T00:28:30.725Z,94724.88
2024-02-07T00:30:58.785Z,94713.13
2024-02-07T00:33:25.416Z,94711.38
2024-02-07T00:35:52.246Z,94709.34
2024-02-07T00:38:18.971Z,94717.63
2024-02-07T00:40:45.742Z,94707.28
2024-02-07T00:43:16.043Z,94701.84
2024-02-07T00:45:42.984Z,94698.81
2024-02-07T00:48:11.163Z,94697.41
2024-02-07T00:50:37.889Z,94695.97
2024-02-07T00:53:04.642Z,94704.47
2024-02-07T00:55:31.389Z,94707.84
2024-02-07T00:57:58.098Z,94687.09
2024-02-07T01:00:26.478Z,94696.59
2024-02-07T01:02:54.312Z,94695.00
2024-02-07T01:05:22.926Z,94695.78
2024-02-07T01:07:49.713Z,94689.31
2024-02-07T01:10:16.980Z,94697.00
2024-02-07T01:12:43.649Z,94695.41
2024-02-07T01:15:10.760Z,94687.31
2024-02-07T01:17:37.518Z,94676.81
2024-02-07T01:20:06.784Z,94682.63
2024-02-07T01:22:34.907Z,94675.16
2024-02-07T01:25:01.541Z,94671.72
2024-02-07T01:27:28.207Z,94676.22
2024-02-07T01:29:56.474Z,94673.78
2024-02-07T01:32:23.578Z,94678.59
2024-02-07T01:34:50.582Z,94670.53
2024-02-07T01:37:17.328Z,94671.97
2024-02-07T01:39:45.349Z,94673.78
2024-02-07T01:42:12.665Z,94665.28
2024-02-07T01:44:39.403Z,94667.56
2024-02-07T01:47:13.933Z,94669.34
2024-02-07T01:49:42.604Z,94665.88
2024-02-07T01:52:11.322Z,94666.31
2024-02-07T01:54:40.502Z,94659.84
2024-02-07T01:57:08.882Z,94659.25
2024-02-07T01:59:36.840Z,94646.13
2024-02-07T02:02:05.276Z,94641.25
2024-02-07T02:04:33.661Z,94639.25
2024-02-07T02:07:00.561Z,94634.47
2024-02-07T02:09:27.570Z,94627.16
2024-02-07T02:11:58.068Z,94629.41
2024-02-07T02:14:26.809Z,94629.16
2024-02-07T02:16:53.640Z,94622.91
2024-02-07T02:19:21.850Z,94624.34
2024-02-07T02:22:11.906Z,94617.06
2024-02-07T02:24:50.171Z,94619.09
2024-02-07T02:27:33.867Z,94620.91
2024-02-07T02:30:10.523Z,94621.53
2024-02-07T02:32:40.098Z,94630.38
2024-02-07T02:35:09.408Z,94628.19
2024-02-07T02:37:36.665Z,94615.47
2024-02-07T02:40:07.127Z,94614.88
2024-02-07T02:42:34.972Z,94612.25
2024-02-07T02:45:03.215Z,94608.81
2024-02-07T02:47:30.105Z,94605.19
2024-02-07T02:49:57.021Z,94598.94
2024-02-07T02:52:23.749Z,94586.25
2024-02-07T02:54:51.000Z,94585.22
2024-02-07T02:57:20.669Z,94588.22
2024-02-07T02:59:49.490Z,94578.34
2024-02-07T03:02:21.189Z,94586.03
2024-02-07T03:04:51.187Z,94579.38
2024-02-07T03:07:38.064Z,94574.53
2024-02-07T03:10:08.698Z,94568.50
2024-02-07T03:12:35.459Z,94569.28
2024-02-07T03:15:02.502Z,94565.88
2024-02-07T03:17:30.524Z,94570.91
2024-02-07T03:19:57.282Z,94568.50
2024-02-07T03:22:24.013Z,94567.25
2024-02-07T03:24:56.775Z,94560.41
2024-02-07T03:27:24.270Z,94569.09
2024-02-07T03:29:50.996Z,94560.91
2024-02-07T03:32:20.997Z,94562.25
2024-02-07T03:34:49.249Z,94548.13
2024-02-07T03:37:17.392Z,94551.56
2024-02-07T03:39:44.157Z,94536.44
2024-02-07T03:42:11.398Z,94540.84
2024-02-07T03:44:41.052Z,94535.63
2024-02-07T03:47:07.998Z,94525.34
2024-02-07T03:49:35.392Z,94534.00
2024-02-07T03:52:03.765Z,94532.38
2024-02-07T03:54:30.414Z,94528.34
2024-02-07T03:56:57.037Z,94521.31
2024-02-07T03:59:23.653Z,94524.72
2024-02-07T04:01:50.432Z,94513.84
2024-02-07T04:04:21.564Z,94513.84
2024-02-07T04:06:48.703Z,94516.09
2024-02-07T04:09:19.633Z,94523.31
2024-02-07T04:11:46.347Z,94508.41
2024-02-07T04:14:12.946Z,94514.03
2024-02-07T04:16:58.326Z,94511.03
2024-02-07T04:19:43.895Z,94513.47
2024-02-07T04:22:29.338Z,94517.91
2024-02-07T04:25:16.131Z,94513.81
2024-02-07T04:28:01.462Z,94512.69
2024-02-07T04:30:46.909Z,94520.00
2024-02-07T04:33:32.260Z,94521.53
2024-02-07T04:36:17.334Z,94517.31
2024-02-07T04:39:02.880Z,94517.09
2024-02-07T04:41:49.533Z,94507.66
2024-02-07T04:44:35.017Z,94512.66
2024-02-07T04:47:20.421Z,94520.03
2024-02-07T04:50:05.984Z,94515.50
2024-02-07T04:52:51.225Z,94511.88
2024-02-07T04:55:36.761Z,94510.06
2024-02-07T04:58:23.429Z,94510.06
2024-02-07T05:01:08.912Z,94504.59
2024-02-07T05:03:54.171Z,94498.19
2024-02-07T05:06:39.686Z,94495.94
2024-02-07T05:09:25.060Z,94488.88
2024-02-07T05:12:10.478Z,94486.88
2024-02-07T05:14:50.729Z,94487.88
2024-02-07T05:17:20.699Z,94492.91
2024-02-07T05:19:47.552Z,94485.69
2024-02-07T05:22:14.777Z,94482.47
2024-02-07T05:24:41.624Z,94495.34
2024-02-07T05:27:08.437Z,94489.09
2024-02-07T05:29:35.193Z,94490.78
2024-02-07T05:32:03.386Z,94479.84
2024-02-07T05:34:30.216Z,94475.00
2024-02-07T05:36:56.924Z,94472.19
2024-02-07T05:39:24.505Z,94458.88
2024-02-07T05:41:51.132Z,94458.88
2024-02-07T05:44:17.843Z,94461.09
2024-02-07T05:46:44.889Z,94481.03
2024-02-07T05:49:17.720Z,94473.44
2024-02-07T05:51:44.580Z,94463.50
2024-02-07T05:54:11.261Z,94455.03
2024-02-07T05:56:37.947Z,94457.84
2024-02-07T05:59:04.655Z,94461.72
2024-02-07T06:01:31.504Z,94461.91
2024-02-07T06:03:58.271Z,94464.72
2024-02-07T06:06:30.958Z,94461.09
2024-02-07T06:08:58.617Z,94461.09
2024-02-07T06:11:32.680Z,94451.41
2024-02-07T06:14:00.388Z,94465.63
2024-02-07T06:16:27.483Z,94463.34
2024-02-07T06:18:54.580Z,94458.69
2024-02-07T06:21:21.256Z,94459.09
2024-02-07T06:23:49.379Z,94461.69
2024-02-07T06:26:16.635Z,94466.34
2024-02-07T06:28:45.558Z,94468.06
2024-02-07T06:31:12.199Z,94471.13
2024-02-07T06:33:39.410Z,94457.47
2024-02-07T06:36:07.046Z,94478.22
2024-02-07T06:38:33.881Z,94474.28
2024-02-07T06:41:01.933Z,94472.56
2024-02-07T06:43:31.492Z,94480.41
2024-02-07T06:45:58.873Z,94470.19
2024-02-07T06:48:25.560Z,94456.13
2024-02-07T06:50:52.229Z,94462.63
2024-02-07T06:53:18.852Z,94472.91
2024-02-07T06:55:45.585Z,94466.28
2024-02-07T06:58:13.696Z,94465.13
2024-02-07T07:00:40.417Z,94459.50
2024-02-07T07:03:07.077Z,94480.03
2024-02-07T07:05:34.198Z,94475.00
2024-02-07T07:08:00.925Z,94477.16
2024-02-07T07:10:28.150Z,94467.69
2024-02-07T07:12:57.714Z,94462.09
2024-02-07T07:15:33.010Z,94455.06
2024-02-07T07:18:01.364Z,94462.72
2024-02-07T07:20:32.663Z,94456.47
2024-02-07T07:23:11.540Z,94447.41
2024-02-07T07:25:42.284Z,94447.41
2024-02-07T07:28:08.983Z,94447.81
2024-02-07T07:30:36.955Z,94441.34
2024-02-07T07:33:04.370Z,94444.38
2024-02-07T07:35:31.563Z,94442.97
2024-02-07T07:37:59.136Z,94442.97
2024-02-07T07:40:27.965Z,94448.56
2024-02-07T07:42:54.652Z,94443.09
2024-02-07T07:45:21.277Z,94442.75
2024-02-07T07:47:49.242Z,94434.72
2024-02-07T07:50:16.084Z,94433.09
2024-02-07T07:52:42.744Z,94431.69
2024-02-07T07:55:09.391Z,94428.47
2024-02-07T07:57:36.007Z,94427.06
2024-02-07T08:00:02.640Z,94424.25
2024-02-07T08:02:30.898Z,94424.44
2024-02-07T08:04:59.085Z,94422.44
2024-02-07T08:07:25.812Z,94411.75
2024-02-07T08:09:52.444Z,94415.59
2024-02-07T08:12:19.073Z,94414.38
2024-02-07T08:14:45.765Z,94408.34
2024-02-07T08:17:17.365Z,94399.72
2024-02-07T08:19:44.101Z,94410.19
2024-02-07T08:22:12.131Z,94410.38
2024-02-07T08:24:38.752Z,94406.28
2024-02-07T08:27:06.441Z,94396.22
2024-02-07T08:29:33.276Z,94400.06
2024-02-07T08:32:01.810Z,94402.75
2024-02-07T08:34:29.173Z,94389.22
2024-02-07T08:36:56.054Z,94395.94
2024-02-07T08:39:24.083Z,94388.72
2024-02-07T08:41:50.761Z,94387.34
2024-02-07T08:44:17.404Z,94392.97
2024-02-07T08:46:45.498Z,94382.69
2024-02-07T08:49:12.336Z,94389.53
2024-02-07T08:51:39.131Z,94382.56
2024-02-07T08:54:05.961Z,94378.03
2024-02-07T08:56:33.937Z,94386.06
2024-02-07T08:59:00.670Z,94383.72
2024-02-07T09:01:27.447Z,94388.13
2024-02-07T09:03:54.086Z,94395.34
2024-02-07T09:06:21.210Z,94378.34
2024-02-07T09:08:47.971Z,94369.13
2024-02-07T09:11:14.597Z,94379.06
2024-02-07T09:13:42.661Z,94369.16
2024-02-07T09:16:09.349Z,94363.47
2024-02-07T09:18:37.866Z,94359.38
2024-02-07T09:21:05.330Z,94359.19
2024-02-07T09:23:32.477Z,94360.06
2024-02-07T09:25:59.359Z,94360.84
2024-02-07T09:28:27.061Z,94362.75
2024-02-07T09:30:55.158Z,94354.28
2024-02-07T09:33:22.006Z,94359.47
2024-02-07T09:35:49.023Z,94356.72
2024-02-07T09:38:18.624Z,94349.19
2024-02-07T09:40:47.505Z,94335.94
2024-02-07T09:43:15.097Z,94333.34
2024-02-07T09:45:44.622Z,94330.28
2024-02-07T09:48:19.136Z,94329.03
2024-02-07T09:50:47.341Z,94326.19
2024-02-07T09:53:15.643Z,94336.63
2024-02-07T09:55:43.606Z,94333.69
2024-02-07T09:58:10.782Z,94316.16
2024-02-07T10:00:37.437Z,94323.25
2024-02-07T10:03:08.373Z,94332.44
2024-02-07T10:05:37.268Z,94343.91
2024-02-07T10:08:05.655Z,94333.75
2024-02-07T10:10:32.778Z,94327.13
2024-02-07T10:13:00.008Z,94322.88
2024-02-07T10:15:26.940Z,94319.59
2024-02-07T10:17:53.804Z,94330.69
2024-02-07T10:20:20.562Z,94307.00
2024-02-07T10:22:48.754Z,94313.78
2024-02-07T10:25:17.112Z,94317.91
2024-02-07T10:27:44.568Z,94291.81
2024-02-07T10:30:13.546Z,94295.56
2024-02-07T10:32:41.834Z,94285.50
2024-02-07T10:35:12.338Z,94280.22
2024-02-07T10:37:40.506Z,94270.13
2024-02-07T10:40:10.591Z,94259.13
2024-02-07T10:42:38.054Z,94260.19
2024-02-07T10:45:05.955Z,94242.47
2024-02-07T10:47:33.212Z,94238.41
2024-02-07T10:50:00.460Z,94233.34
2024-02-07T10:52:27.875Z,94228.63
2024-02-07T10:54:54.857Z,94232.97
2024-02-07T10:57:28.956Z,94226.47
2024-02-07T10:59:57.277Z,94225.34
2024-02-07T11:02:25.688Z,94233.75
2024-02-07T11:04:53.118Z,94225.19
2024-02-07T11:07:20.995Z,94205.06
2024-02-07T11:09:48.311Z,94220.13
2024-02-07T11:12:16.296Z,94222.44
2024-02-07T11:14:48.787Z,94215.13
2024-02-07T11:17:16.426Z,94219.31
2024-02-07T11:19:44.095Z,94207.38
2024-02-07T11:22:18.715Z,94193.69
2024-02-07T11:24:46.755Z,94190.75
2024-02-07T11:27:13.793Z,94193.91
2024-02-07T11:29:44.001Z,94197.47
2024-02-07T11:32:11.098Z,94188.72
2024-02-07T11:34:38.897Z,94188.16
2024-02-07T11:37:08.817Z,94178.25
2024-02-07T11:39:39.542Z,94172.97
2024-02-07T11:42:13.669Z,94173.59
2024-02-07T11:44:53.396Z,94170.66
2024-02-07T11:47:24.393Z,94178.16
2024-02-07T11:49:55.317Z,94162.56
2024-02-07T11:52:26.487Z,94155.91
2024-02-07T11:54:53.229Z,94161.97
2024-02-07T11:57:22.353Z,94158.44
2024-02-07T11:59:50.861Z,94148.22
2024-02-07T12:02:18.418Z,94143.41
2024-02-07T12:04:46.225Z,94136.34
2024-02-07T12:07:14.146Z,94149.28
2024-02-07T12:09:40.976Z,94144.38
2024-02-07T12:12:13.264Z,94144.50
2024-02-07T12:14:40.881Z,94137.88
2024-02-07T12:17:09.425Z,94135.63
2024-02-07T12:19:36.986Z,94123.91
2024-02-07T12:22:04.036Z,94114.38
2024-02-07T12:24:32.332Z,94121.97
2024-02-07T12:27:07.933Z,94116.63
2024-02-07T12:29:34.813Z,94116.22
2024-02-07T12:32:01.616Z,94118.97
2024-02-07T12:34:29.764Z,94120.53
2024-02-07T12:36:56.508Z,94117.34
2024-02-07T12:39:23.159Z,94103.25
2024-02-07T12:41:50.121Z,94098.34
2024-02-07T12:44:17.371Z,94105.19
2024-02-07T12:46:44.659Z,94105.13
2024-02-07T12:49:11.538Z,94091.69
2024-02-07T12:51:39.584Z,94084.84
2024-02-07T12:54:06.361Z,94063.19
2024-02-07T12:56:32.998Z,94067.22
2024-02-07T12:58:59.840Z,94065.25
2024-02-07T13:01:28.346Z,94055.16
2024-02-07T13:03:55.814Z,94048.03
2024-02-07T13:06:22.785Z,94047.28
2024-02-07T13:08:50.928Z,94047.25
2024-02-07T13:11:17.738Z,94037.97
2024-02-07T13:13:44.511Z,94028.41
2024-02-07T13:16:11.330Z,94028.47
2024-02-07T13:18:38.106Z,94024.56
2024-02-07T13:21:06.914Z,94021.63
2024-02-07T13:23:34.871Z,94021.28
2024-02-07T13:26:05.714Z,94019.72
2024-02-07T13:28:37.070Z,94014.41
2024-02-07T13:31:05.158Z,94015.22
2024-02-07T13:33:31.971Z,94011.22
2024-02-07T13:35:58.687Z,94007.94
2024-02-07T13:38:33.598Z,94002.13
2024-02-07T13:41:05.471Z,93997.66
2024-02-07T13:43:32.183Z,94002.97
2024-02-07T13:45:59.383Z,93994.22
2024-02-07T13:48:29.578Z,93997.22
2024-02-07T13:50:58.026Z,93984.69
2024-02-07T13:53:24.702Z,93992.44
2024-02-07T13:55:52.161Z,93986.81
2024-02-07T13:58:20.409Z,93990.81
2024-02-07T14:00:47.270Z,93984.13
2024-02-07T14:03:14.082Z,93998.06
2024-02-07T14:05:40.843Z,93984.66
2024-02-07T14:08:07.782Z,93970.88
2024-02-07T14:10:34.708Z,93969.72
2024-02-07T14:13:01.345Z,93976.69
2024-02-07T14:15:29.322Z,93986.38
2024-02-07T14:17:56.254Z,93971.47
2024-02-07T14:20:22.958Z,93972.22
2024-02-07T14:22:49.607Z,93973.13
2024-02-07T14:25:16.380Z,93980.28
2024-02-07T14:27:43.083Z,93962.91
2024-02-07T14:30:10.244Z,93959.66
2024-02-07T14:32:38.428Z,93961.50
2024-02-07T14:35:07.239Z,93966.09
2024-02-07T14:37:34.869Z,93970.47
2024-02-07T14:40:02.006Z,93965.56
2024-02-07T14:42:28.681Z,93953.81
2024-02-07T14:44:55.385Z,93955.41
2024-02-07T14:47:21.980Z,93960.47
2024-02-07T14:49:50.294Z,93962.94
2024-02-07T14:52:18.478Z,93964.69
2024-02-07T14:54:45.257Z,93954.78
2024-02-07T14:57:11.932Z,93953.44
2024-02-07T14:59:38.554Z,93954.50
2024-02-07T15:02:05.493Z,93949.66
2024-02-07T15:04:32.411Z,93952.69
2024-02-07T15:07:00.439Z,93956.69
2024-02-07T15:09:27.185Z,93953.28
2024-02-07T15:11:56.541Z,93945.72
2024-02-07T15:14:23.383Z,93947.63
2024-02-07T15:16:50.086Z,93951.50
2024-02-07T15:19:17.228Z,93950.41
2024-02-07T15:21:44.114Z,93935.84
2024-02-07T15:24:12.841Z,93943.28
2024-02-07T15:26:39.566Z,93943.81
2024-02-07T15:29:07.460Z,93936.75
2024-02-07T15:31:34.164Z,93941.09
2024-02-07T15:34:00.853Z,93940.38
2024-02-07T15:36:27.586Z,93926.63
2024-02-07T15:38:54.231Z,93924.16
2024-02-07T15:41:22.344Z,93931.31
2024-02-07T15:43:49.195Z,93920.28
2024-02-07T15:46:18.029Z,93924.50
2024-02-07T15:48:54.380Z,93923.47
2024-02-07T15:51:27.853Z,93926.47
2024-02-07T15:53:54.545Z,93923.41
2024-02-07T15:56:23.114Z,93915.66
2024-02-07T15:58:49.847Z,93925.22
2024-02-07T16:01:16.723Z,93928.28
2024-02-07T16:03:43.438Z,93915.91
2024-02-07T16:06:10.080Z,93911.88
2024-02-07T16:08:36.803Z,93907.75
2024-02-07T16:11:05.553Z,93911.47
2024-02-07T16:13:34.397Z,93910.91
2024-02-07T16:16:01.124Z,93911.03
2024-02-07T16:18:28.431Z,93918.50
2024-02-07T16:20:56.053Z,93905.22
2024-02-07T16:23:23.187Z,93903.19
2024-02-07T16:25:49.958Z,93906.53
2024-02-07T16:28:16.644Z,93898.09
2024-02-07T16:30:44.606Z,93902.31
2024-02-07T16:33:11.420Z,93901.91
2024-02-07T16:35:39.046Z,93904.06
2024-02-07T16:38:05.776Z,93901.09
2024-02-07T16:40:34.521Z,93907.25
2024-02-07T16:43:04.345Z,93896.00
2024-02-07T16:45:35.994Z,93914.91
2024-02-07T16:48:04.636Z,93908.69
2024-02-07T16:50:31.305Z,93898.78
2024-02-07T16:52:58.070Z,93899.81
2024-02-07T16:55:24.848Z,93903.25
2024-02-07T16:57:51.730Z,93900.78
2024-02-07T17:00:19.333Z,93899.50
2024-02-07T17:02:46.657Z,93891.53
2024-02-07T17:05:14.770Z,93898.22
2024-02-07T17:07:42.327Z,93895.34
2024-02-07T17:10:09.696Z,93900.84
2024-02-07T17:12:36.363Z,93897.97
2024-02-07T17:15:03.104Z,93904.28
2024-02-07T17:17:29.738Z,93910.22
2024-02-07T17:19:56.388Z,93900.13
2024-02-07T17:22:24.452Z,93902.13
2024-02-07T17:24:51.562Z,93905.78
2024-02-07T17:27:18.239Z,93903.47
2024-02-07T17:29:49.189Z,93902.91
2024-02-07T17:32:22.385Z,93909.94
2024-02-07T17:34:49.938Z,93906.59
2024-02-07T17:37:16.709Z,93901.72
2024-02-07T17:39:44.677Z,93907.31
2024-02-07T17:42:11.307Z,93901.00
2024-02-07T17:44:37.904Z,93903.66
2024-02-07T17:47:05.574Z,93896.28
2024-02-07T17:49:32.333Z,93898.69
2024-02-07T17:51:59.056Z,93892.53
2024-02-07T17:54:25.705Z,93898.84
2024-02-07T17:56:53.717Z,93902.59
2024-02-07T17:59:20.611Z,93896.69
2024-02-07T18:01:47.252Z,93902.03
2024-02-07T18:04:13.979Z,93889.03
2024-02-07T18:06:40.736Z,93890.22
2024-02-07T18:09:08.065Z,93893.59
2024-02-07T18:11:34.922Z,93886.56
2024-02-07T18:14:03.016Z,93876.25
2024-02-07T18:16:30.377Z,93878.66
2024-02-07T18:18:57.083Z,93884.88
2024-02-07T18:21:23.742Z,93885.59
2024-02-07T18:23:53.906Z,93875.53
2024-02-07T18:26:21.656Z,93881.75
2024-02-07T18:28:48.298Z,93877.59
2024-02-07T18:31:17.417Z,93869.69
2024-02-07T18:33:44.107Z,93871.06
2024-02-07T18:36:11.233Z,93862.38
2024-02-07T18:38:37.948Z,93859.16
2024-02-07T18:41:04.957Z,93858.13
2024-02-07T18:43:31.726Z,93857.47
2024-02-07T18:45:59.693Z,93854.94
2024-02-07T18:48:27.903Z,93860.44
2024-02-07T18:50:54.631Z,93854.78
2024-02-07T18:53:21.959Z,93853.72
2024-02-07T18:55:48.995Z,93859.03
2024-02-07T18:58:16.077Z,93850.53
2024-02-07T19:00:42.892Z,93851.34
2024-02-07T19:03:10.910Z,93840.66
2024-02-07T19:05:38.984Z,93835.69
2024-02-07T19:08:06.540Z,93831.84
2024-02-07T19:10:34.809Z,93825.56
2024-02-07T19:13:03.304Z,93826.91
2024-02-07T19:15:29.951Z,93829.38
2024-02-07T19:17:56.712Z,93824.69
2024-02-07T19:20:23.536Z,93830.47
2024-02-07T19:22:51.625Z,93822.28
2024-02-07T19:25:18.430Z,93816.53
2024-02-07T19:27:45.152Z,93814.22
2024-02-07T19:30:12.688Z,93810.78
2024-02-07T19:32:40.740Z,93816.28
2024-02-07T19:35:08.200Z,93812.13
2024-02-07T19:37:35.144Z,93810.22
2024-02-07T19:40:04.458Z,93810.16
2024-02-07T19:42:31.092Z,93806.22
2024-02-07T19:44:58.351Z,93813.09
2024-02-07T19:47:25.150Z,93813.41
2024-02-07T19:49:51.823Z,93811.09
2024-02-07T19:52:18.656Z,93812.38
2024-02-07T19:54:45.302Z,93810.28
2024-02-07T19:57:13.317Z,93821.16
2024-02-07T19:59:39.988Z,93821.16
2024-02-07T20:02:06.967Z,93826.50
2024-02-07T20:04:33.670Z,93831.63
2024-02-07T20:07:00.343Z,93826.34
2024-02-07T20:09:27.709Z,93825.63
2024-02-07T20:11:54.455Z,93837.91
2024-02-07T20:14:22.449Z,93839.50
2024-02-07T20:16:49.179Z,93838.88
2024-02-07T20:19:16.028Z,93830.66
2024-02-07T20:21:42.737Z,93829.78
2024-02-07T20:24:09.361Z,93834.72
2024-02-07T20:26:36.002Z,93826.84
2024-02-07T20:29:02.668Z,93822.41
2024-02-07T20:31:30.703Z,93816.84
2024-02-07T20:33:59.117Z,93816.84
2024-02-07T20:36:27.329Z,93818.59
2024-02-07T20:38:54.501Z,93820.88
2024-02-07T20:41:21.501Z,93814.16
2024-02-07T20:43:48.182Z,93803.44
2024-02-07T20:46:14.809Z,93797.47
2024-02-07T20:48:42.964Z,93795.06
2024-02-07T20:51:09.703Z,93790.03
2024-02-07T20:53:36.324Z,93782.19
2024-02-07T20:56:03.074Z,93798.00
2024-02-07T20:58:29.772Z,93791.69
2024-02-07T21:00:56.525Z,93785.41
2024-02-07T21:03:25.671Z,93775.91
2024-02-07T21:05:55.454Z,93780.78
2024-02-07T21:08:22.078Z,93774.47
2024-02-07T21:10:48.812Z,93780.84
2024-02-07T21:13:17.853Z,93795.94
2024-02-07T21:15:45.138Z,93789.56
2024-02-07T21:18:11.853Z,93791.63
2024-02-07T21:20:38.528Z,93787.41
2024-02-07T21:23:06.660Z,93786.69
2024-02-07T21:25:33.355Z,93793.47
2024-02-07T21:28:02.244Z,93786.13
2024-02-07T21:30:30.672Z,93790.34
2024-02-07T21:32:57.441Z,93788.75
2024-02-07T21:35:24.219Z,93779.56
2024-02-07T21:37:51.031Z,93781.34
2024-02-07T21:40:19.292Z,93782.22
2024-02-07T21:42:45.917Z,93783.06
2024-02-07T21:45:13.196Z,93782.53
2024-02-07T21:47:40.819Z,93782.94
2024-02-07T21:50:08.254Z,93773.59
2024-02-07T21:52:35.026Z,93776.72
2024-02-07T21:55:03.095Z,93773.13
2024-02-07T21:57:31.081Z,93785.25
2024-02-07T21:59:57.710Z,93786.28
2024-02-07T22:02:24.367Z,93791.63
2024-02-07T22:04:51.170Z,93776.94
2024-02-07T22:07:18.172Z,93772.25
2024-02-07T22:09:47.511Z,93775.19
2024-02-07T22:12:14.277Z,93775.50
2024-02-07T22:14:42.289Z,93771.53
2024-02-07T22:17:08.989Z,93777.13
2024-02-07T22:19:35.877Z,93777.81
2024-02-07T22:22:02.553Z,93777.91
2024-02-07T22:24:29.182Z,93768.00
2024-02-07T22:26:55.835Z,93766.88
2024-02-07T22:29:22.468Z,93772.88
2024-02-07T22:31:50.479Z,93769.19
2024-02-07T22:34:17.511Z,93761.38
2024-02-07T22:36:44.386Z,93763.94
2024-02-07T22:39:11.854Z,93767.06
2024-02-07T22:41:38.508Z,93765.44
2024-02-07T22:44:05.302Z,93762.19
2024-02-07T22:46:32.020Z,93766.72
2024-02-07T22:49:00.159Z,93767.53
2024-02-07T22:51:27.183Z,93763.31
2024-02-07T22:53:53.798Z,93782.13
2024-02-07T22:56:22.971Z,93786.50
2024-02-07T22:58:49.876Z,93785.19
2024-02-07T23:01:16.592Z,93788.81
2024-02-07T23:03:43.308Z,93785.41
2024-02-07T23:06:11.322Z,93789.94
2024-02-07T23:08:38.194Z,93784.31
2024-02-07T23:11:05.227Z,93789.88
2024-02-07T23:13:31.957Z,93780.69
2024-02-07T23:15:58.788Z,93783.41
2024-02-07T23:18:25.597Z,93790.34
2024-02-07T23:20:52.292Z,93781.72
2024-02-07T23:23:20.295Z,93776.16
2024-02-07T23:25:46.941Z,93778.47
2024-02-07T23:28:13.592Z,93772.16
2024-02-07T23:30:41.437Z,93765.38
2024-02-07T23:33:10.679Z,93770.56
2024-02-07T23:35:37.472Z,93768.81
2024-02-07T23:38:04.650Z,93772.25
2024-02-07T23:40:32.723Z,93776.28
2024-02-07T23:42:59.364Z,93774.94
2024-02-07T23:45:26.052Z,93773.25
2024-02-07T23:47:52.785Z,93775.28
2024-02-07T23:50:19.538Z,93769.78
2024-02-07T23:52:46.400Z,93783.06
2024-02-07T23:55:13.997Z,93780.19
2024-02-07T23:57:42.164Z,93769.91
